Allendorf, Iowa
Current Conditions -  °F | °C
As of 4:55 PM on Sunday 21 Dec 2014 (Local Time) from KSHL Reporting Station
Haze Haze  
Wind Chill: 29°   Ceiling: 400
Heat Index: 39°   Visibility: 2.5mi
Dew Point: 39°   Wind: 23mph
Humidity: 100%   Direction: 180°S
Pressure: 29.64"   Gusts: 32mph
Location:  43.41°N, 95.64°W
Report Text: KSHL 212255Z AUTO 18020G28KT 2 1/2SM BR OVC004 04/04 A2964 RMK AO2
Loading
Personal Weather Stations






























Interactive Weather Map New forecast layout! Learn more

10-Day Weather Forecast

Advertisements
Track Severe Weather on mobile